Data for 08/26/2014

Time Sea-Level Adjusted Pressure Absolute Pressure Temperature Relative Humidity Dew Point   
(mb) (inHg) (mb) (inHg) (C) (F) (%) (C) (F)
00:05 1022 30.18 851 25.13 11.1 51.9 78 7.4 45.3
00:10 1022 30.18 851 25.13 11 51.8 78 7.4 45.3
00:15 1022 30.18 851 25.13 10.8 51.5 78 7.1 44.8
00:20 1022 30.18 851 25.13 10.6 51.1 78 7 44.6
00:25 1022 30.18 851 25.13 10.6 51 78 7 44.6
00:30 1022 30.18 851 25.13 10.7 51.2 77 6.8 44.3
00:35 1022 30.18 851 25.13 10.9 51.5 77 6.9 44.5
00:40 1022 30.18 851 25.13 10.8 51.5 77 7 44.6
00:45 1022 30.18 851 25.13 10.7 51.3 77 6.9 44.5
00:50 1022 30.18 851 25.13 10.6 51 78 6.9 44.4
00:55 1022 30.18 851 25.13 10.5 50.9 78 6.9 44.4
01:00 1022 30.18 851 25.13 10.4 50.8 79 7 44.6
01:05 1021 30.15 851 25.13 10.4 50.6 79 6.9 44.4
01:10 1021 30.15 851 25.13 10.2 50.4 79 6.8 44.3
01:15 1021 30.15 851 25.13 10.1 50.2 79 6.8 44.2
01:20 1021 30.15 851 25.13 9.9 49.8 80 6.6 43.9
01:25 1021 30.15 851 25.13 9.8 49.6 80 6.5 43.7
01:30 1021 30.15 851 25.13 9.9 49.8 78 6.3 43.3
01:35 1021 30.15 851 25.13 10.1 50.2 77 6.3 43.4
01:40 1022 30.18 851 25.13 10.4 50.7 76 6.4 43.5
01:45 1022 30.18 851 25.13 10.5 51 76 6.6 43.9
01:50 1022 30.18 851 25.13 10.4 50.7 77 6.6 43.9
01:55 1022 30.18 851 25.13 10.3 50.5 78 6.6 43.9
02:00 1022 30.18 851 25.13 10.3 50.5 79 6.7 44.1
02:05 1022 30.18 851 25.13 10.1 50.1 80 6.7 44.1
02:10 1022 30.18 851 25.13 10.1 50.1 80 6.8 44.3
02:15 1022 30.18 851 25.13 9.9 49.9 81 6.8 44.2
02:20 1022 30.18 851 25.13 9.9 49.9 81 6.7 44.1
02:25 1022 30.18 851 25.13 9.8 49.7 80 6.6 43.9
02:30 1022 30.18 851 25.13 9.8 49.6 80 6.4 43.6
02:35 1022 30.18 851 25.13 9.7 49.5 80 6.4 43.5
02:40 1022 30.18 851 25.13 9.6 49.3 80 6.4 43.5
02:45 1022 30.18 851 25.13 9.5 49.1 80 6.2 43.2
02:50 1022 30.18 851 25.13 9.4 49 79 6.1 42.9
02:55 1022 30.18 851 25.13 9.3 48.7 80 6 42.8
03:00 1022 30.18 851 25.13 9.5 49.2 79 6.1 42.9
03:05 1022 30.18 851 25.13 10 50 76 6 42.8
03:10 1022 30.18 851 25.13 10.1 50.1 77 6.3 43.3
03:15 1022 30.18 851 25.13 9.8 49.6 78 6.1 43
03:20 1022 30.18 851 25.13 9.8 49.7 79 6.3 43.4
03:25 1022 30.18 851 25.13 9.8 49.6 79 6.3 43.4
03:30 1022 30.18 851 25.13 9.5 49.2 79 6.1 42.9
03:35 1022 30.18 851 25.13 9.7 49.4 79 6.1 43.1
03:40 1022 30.18 851 25.13 9.7 49.4 79 6.2 43.1
03:45 1022 30.18 851 25.13 9.5 49.1 79 6.1 43
03:50 1022 30.18 851 25.13 9.3 48.7 80 6 42.8
03:55 1022 30.18 851 25.13 9.4 49 78 5.9 42.5
04:00 1022 30.18 851 25.13 9.7 49.4 77 5.9 42.6
04:05 1022 30.18 851 25.13 9.8 49.6 76 5.8 42.5
04:10 1022 30.18 851 25.13 9.5 49 78 5.8 42.4
04:15 1022 30.18 851 25.13 9.1 48.4 79 5.7 42.2
04:20 1022 30.18 851 25.13 9.1 48.3 79 5.7 42.2
04:25 1022 30.18 851 25.13 9.2 48.5 79 5.7 42.3
04:30 1022 30.18 851 25.13 8.9 48.1 80 5.7 42.2
04:35 1022 30.18 851 25.13 9.1 48.5 79 5.6 42.1
04:40 1022 30.18 851 25.13 9.2 48.6 79 5.8 42.4
04:45 1022 30.18 852 25.16 9.2 48.5 79 5.8 42.5
04:50 1022 30.18 852 25.16 8.8 47.9 82 5.8 42.5
04:55 1022 30.18 852 25.16 8.7 47.7 82 5.9 42.6
05:00 1022 30.18 852 25.16 8.6 47.5 83 5.8 42.5
05:05 1022 30.18 852 25.16 8.5 47.4 82 5.7 42.3
05:10 1022 30.18 852 25.16 8.4 47.1 83 5.7 42.2
05:15 1022 30.18 852 25.16 8.2 46.7 83 5.5 42
05:20 1022 30.18 852 25.16 8 46.4 84 5.4 41.7
05:25 1022 30.18 852 25.16 7.9 46.2 84 5.3 41.6
05:30 1023 30.21 852 25.16 8.2 46.7 82 5.3 41.5
05:35 1023 30.21 852 25.16 8.4 47 82 5.4 41.7
05:40 1023 30.21 852 25.16 8.8 47.8 80 5.5 41.9
05:45 1023 30.21 852 25.16 8.9 47.9 81 5.7 42.3
05:50 1023 30.21 852 25.16 8.7 47.6 81 5.6 42
05:55 1023 30.21 852 25.16 8.5 47.3 81 5.5 41.9
06:00 1023 30.21 852 25.16 8.6 47.5 81 5.5 42
06:05 1023 30.21 852 25.16 8.8 47.8 80 5.4 41.8
06:10 1023 30.21 852 25.16 8.9 48.1 79 5.5 41.8
06:15 1023 30.21 852 25.16 9.1 48.4 78 5.5 41.9
06:20 1023 30.21 852 25.16 9 48.1 79 5.5 41.9
06:25 1023 30.21 852 25.16 9 48.3 78 5.4 41.7
06:30 1023 30.21 852 25.16 9.5 49.1 76 5.5 41.9
06:35 1023 30.21 852 25.16 9.8 49.7 74 5.4 41.7
06:40 1023 30.21 852 25.16 10 49.9 73 5.5 41.8
06:45 1023 30.21 852 25.16 10.2 50.3 73 5.6 42.1
06:50 1023 30.21 852 25.16 10.3 50.5 73 5.7 42.3
06:55 1023 30.21 853 25.19 10.4 50.6 75 6.1 42.9
07:00 1023 30.21 853 25.19 10.5 51 74 6.2 43.2
07:05 1023 30.21 853 25.19 10.7 51.3 73 6.2 43.1
07:10 1023 30.21 853 25.19 11.1 52 73 6.4 43.5
07:15 1023 30.21 853 25.19 11.6 52.9 71 6.6 43.8
07:20 1024 30.24 853 25.19 12 53.7 69 6.6 43.8
07:25 1024 30.24 853 25.19 12.4 54.4 69 6.9 44.5
07:30 1023 30.21 853 25.19 12.4 54.3 68 6.7 44.1
07:35 1024 30.24 853 25.19 13 55.4 65 6.6 44
07:40 1023 30.21 853 25.19 13.3 56 66 7.1 44.7
07:45 1023 30.21 853 25.19 13.2 55.8 66 7 44.6
07:50 1023 30.21 853 25.19 13.9 57 63 6.9 44.4
07:55 1023 30.21 853 25.19 14.2 57.6 62 7.1 44.8
08:00 1024 30.24 853 25.19 13.9 57 65 7.5 45.5
08:05 1024 30.24 853 25.19 14.2 57.6 61 6.9 44.4
08:10 1024 30.24 853 25.19 14.6 58.3 62 7.4 45.4
08:15 1024 30.24 853 25.19 14.6 58.2 61 7.2 45
08:20 1024 30.24 853 25.19 15 59 59 7.2 45
08:25 1024 30.24 853 25.19 14.7 58.5 61 7.3 45.1
08:30 1024 30.24 853 25.19 14.8 58.7 60 7.2 44.9
08:35 1024 30.24 853 25.19 15 58.9 57 6.7 44
08:40 1024 30.24 853 25.19 15.7 60.3 55 6.8 44.2
08:45 1024 30.24 853 25.19 16.5 61.8 52 6.9 44.4
08:50 1024 30.24 853 25.19 16.6 61.9 53 7.2 44.9
08:55 1024 30.24 853 25.19 16.6 61.9 52 6.9 44.3
09:00 1024 30.24 853 25.19 17 62.7 50 6.6 43.8
09:05 1024 30.24 853 25.19 16.4 61.5 54 7.3 45.1
09:10 1024 30.24 853 25.19 16.6 61.9 51 6.5 43.8
09:15 1024 30.24 853 25.19 17.2 63 49 6.5 43.8
09:20 1024 30.24 853 25.19 17.3 63.2 50 7 44.6
09:25 1024 30.24 853 25.19 17.1 62.7 49 6.4 43.5
09:30 1024 30.24 853 25.19 17.2 62.9 50 6.9 44.4
09:35 1024 30.24 853 25.19 17.3 63.1 49 6.4 43.6
09:40 1024 30.24 853 25.19 17.8 64 47 6.6 43.8
09:45 1024 30.24 853 25.19 17.9 64.1 47 6.6 43.9
09:50 1024 30.24 853 25.19 18 64.4 47 6.7 44
09:55 1024 30.24 853 25.19 18 64.3 48 6.9 44.4
10:00 1024 30.24 853 25.19 18.8 65.8 42 5.8 42.5
10:05 1024 30.24 853 25.19 19 66.2 44 6.6 43.8
10:10 1024 30.24 853 25.19 19.3 66.8 44 6.8 44.3
10:15 1024 30.24 853 25.19 19.4 67 42 6.2 43.2
10:20 1024 30.24 853 25.19 20.1 68.2 42 6.9 44.5
10:25 1024 30.24 853 25.19 19.5 67.1 44 6.9 44.4
10:30 1024 30.24 853 25.19 20.2 68.4 40 6.4 43.6
10:35 1024 30.24 853 25.19 20.3 68.5 42 7.1 44.7
10:40 1024 30.24 853 25.19 20.1 68.2 40 6.3 43.4
10:45 1024 30.24 853 25.19 20.4 68.7 40 6.5 43.7
10:50 1024 30.24 853 25.19 20.7 69.2 39 6.2 43.2
10:55 1023 30.21 853 25.19 20.9 69.6 39 6.6 43.8
11:00 1023 30.21 853 25.19 19.5 67 43 6.8 44.2
11:05 1023 30.21 853 25.19 19.2 66.5 42 6 42.8
11:10 1023 30.21 853 25.19 20 68 41 6.6 43.8
11:15 1023 30.21 853 25.19 19.5 67 41 6.1 43.1
11:20 1023 30.21 853 25.19 19.8 67.7 40 6 42.9
11:25 1023 30.21 853 25.19 20.7 69.3 37 5.7 42.3
11:30 1023 30.21 852 25.16 21.4 70.6 38 6.5 43.7
11:35 1023 30.21 852 25.16 21.2 70.1 37 6.1 43
11:40 1023 30.21 852 25.16 21.1 70 36 5.6 42
11:45 1023 30.21 852 25.16 21.6 70.9 36 6.1 42.9
11:50 1023 30.21 852 25.16 21.7 71.1 37 6.4 43.6
11:55 1023 30.21 852 25.16 20.9 69.7 37 5.7 42.3
12:00 1023 30.21 852 25.16 20.9 69.6 36 5.5 42
12:05 1023 30.21 852 25.16 21.6 70.8 36 6 42.9
12:10 1023 30.21 852 25.16 21.6 70.8 37 6.4 43.5
12:15 1023 30.21 852 25.16 20.8 69.4 34 4.6 40.3
12:20 1023 30.21 852 25.16 21.3 70.3 33 4.7 40.4
12:25 1023 30.21 852 25.16 22.5 72.4 31 4.9 40.8
12:30 1023 30.21 852 25.16 22.8 73.1 33 5.8 42.5
12:35 1023 30.21 852 25.16 22.7 72.8 32 5.5 41.8
12:40 1023 30.21 852 25.16 22.3 72.2 32 5.1 41.2
12:45 1023 30.21 852 25.16 22.6 72.7 32 5.1 41.2
12:50 1023 30.21 852 25.16 22.8 73 32 5.3 41.6
12:55 1023 30.21 852 25.16 22.9 73.1 32 5.6 42
13:00 1023 30.21 852 25.16 22.9 73.3 31 5.3 41.5
13:05 1023 30.21 852 25.16 23.2 73.7 29 4.5 40
13:10 1023 30.21 852 25.16 23.6 74.5 30 5.2 41.3
13:15 1023 30.21 852 25.16 23.7 74.7 30 5.5 41.8
13:20 1023 30.21 852 25.16 23.2 73.7 30 5.1 41.1
13:25 1023 30.21 852 25.16 23.2 73.7 32 5.9 42.6
13:30 1023 30.21 852 25.16 23.5 74.2 30 5 41
13:35 1023 30.21 852 25.16 23.4 74.1 28 4.3 39.7
13:40 1023 30.21 852 25.16 23.1 73.6 30 4.6 40.3
13:45 1023 30.21 852 25.16 23.6 74.5 27 3.8 38.8
13:50 1023 30.21 852 25.16 22.3 72.2 31 4.4 39.9
13:55 1023 30.21 852 25.16 22.9 73.1 29 4.2 39.5
14:00 1023 30.21 852 25.16 23.5 74.3 29 4.5 40.2
14:05 1023 30.21 852 25.16 23.5 74.4 29 4.7 40.4
14:10 1023 30.21 852 25.16 22.8 73.1 27 2.9 37.2
14:15 1023 30.21 852 25.16 23.1 73.6 28 3.9 39.1
14:20 1022 30.18 852 25.16 23.8 74.8 27 3.8 38.8
14:25 1022 30.18 852 25.16 24.5 76.1 26 3.8 38.8
14:30 1022 30.18 852 25.16 23.8 74.8 26 3.6 38.4
14:35 1022 30.18 852 25.16 23.8 74.8 25 2.8 37
14:40 1022 30.18 852 25.16 24 75.3 26 3.6 38.4
14:45 1022 30.18 852 25.16 24.1 75.3 26 3.7 38.6
14:50 1022 30.18 852 25.16 24.3 75.7 25 3.5 38.3
14:55 1022 30.18 851 25.13 24.4 75.9 25 3.2 37.7
15:00 1022 30.18 851 25.13 24.7 76.4 25 3.7 38.6
15:05 1022 30.18 851 25.13 24.5 76.1 26 3.8 38.9
15:10 1022 30.18 851 25.13 23.8 74.9 27 3.7 38.7
15:15 1022 30.18 851 25.13 23.9 75 26 3.5 38.3
15:20 1022 30.18 851 25.13 24.2 75.6 25 3.2 37.8
15:25 1022 30.18 851 25.13 24.1 75.4 26 3.8 38.8
15:30 1022 30.18 851 25.13 23.8 74.9 27 4 39.3
15:35 1022 30.18 851 25.13 23.6 74.5 28 4.1 39.4
15:40 1022 30.18 851 25.13 24 75.3 26 3.6 38.5
15:45 1022 30.18 851 25.13 24.6 76.3 25 3.3 37.9
15:50 1022 30.18 851 25.13 23.8 74.8 25 3 37.4
15:55 1022 30.18 851 25.13 23.4 74.1 27 3.7 38.6
16:00 1022 30.18 851 25.13 23.5 74.3 26 3 37.4
16:05 1022 30.18 851 25.13 22.8 73 28 3.6 38.5
16:10 1022 30.18 851 25.13 22.9 73.2 28 3.5 38.4
16:15 1022 30.18 851 25.13 24.1 75.4 26 3.5 38.3
16:20 1022 30.18 851 25.13 24.4 75.9 27 4.3 39.7
16:25 1022 30.18 851 25.13 24.3 75.7 27 4.4 40
16:30 1022 30.18 851 25.13 24.5 76.2 26 3.9 38.9
16:35 1022 30.18 851 25.13 24.4 75.9 26 3.7 38.7
16:40 1022 30.18 851 25.13 24.2 75.6 26 3.8 38.8
16:45 1022 30.18 851 25.13 23.8 74.8 27 3.9 38.9
16:50 1022 30.18 851 25.13 23.7 74.6 26 3.3 37.9
16:55 1022 30.18 851 25.13 22.8 73 28 3.6 38.4
17:00 1022 30.18 851 25.13 22.8 73 28 3.6 38.5
17:05 1022 30.18 851 25.13 23.1 73.5 27 3.4 38.1
17:10 1022 30.18 851 25.13 23.4 74.1 27 3.4 38.1
17:15 1022 30.18 851 25.13 22.5 72.5 28 3.2 37.8
17:20 1022 30.18 851 25.13 21.9 71.4 29 3.1 37.5
17:25 1022 30.18 851 25.13 22.1 71.8 29 3.6 38.6
17:30 1022 30.18 851 25.13 22.7 72.8 28 3.2 37.8
17:35 1022 30.18 851 25.13 22.6 72.7 28 3.5 38.3
17:40 1022 30.18 851 25.13 22.3 72.1 29 3.6 38.4
17:45 1021 30.15 851 25.13 22.2 71.9 30 3.8 38.9
17:50 1021 30.15 851 25.13 22.1 71.9 30 3.8 38.9
17:55 1021 30.15 851 25.13 22.1 71.8 29 3.7 38.6
18:00 1022 30.18 851 25.13 21.8 71.2 30 3.5 38.4
18:05 1022 30.18 851 25.13 21.6 70.8 31 3.8 38.8
18:10 1022 30.18 851 25.13 21.5 70.7 31 3.8 38.9
18:15 1022 30.18 851 25.13 21.4 70.6 32 4.2 39.6
18:20 1022 30.18 851 25.13 21.4 70.5 30 3.4 38.1
18:25 1022 30.18 851 25.13 21.4 70.5 30 3.5 38.3
18:30 1022 30.18 851 25.13 21.4 70.6 31 3.8 38.9
18:35 1022 30.18 851 25.13 21.4 70.5 31 3.5 38.3
18:40 1022 30.18 851 25.13 21.3 70.3 31 3.7 38.6
18:45 1022 30.18 851 25.13 21.2 70.2 32 3.9 39
18:50 1022 30.18 851 25.13 21.1 70 32 4.1 39.3
18:55 1022 30.18 851 25.13 21 69.8 32 3.8 38.9
19:00 1022 30.18 851 25.13 20.9 69.5 32 3.5 38.4
19:05 1022 30.18 851 25.13 20.8 69.5 31 3.3 38
19:10 1022 30.18 851 25.13 20.9 69.6 31 3.5 38.3
19:15 1022 30.18 851 25.13 20.8 69.5 39 6.6 43.9
19:20 1022 30.18 851 25.13 20.1 68.1 47 8.6 47.4
19:25 1022 30.18 851 25.13 19.4 66.8 51 9.1 48.4
19:30 1022 30.18 851 25.13 18.5 65.3 53 8.9 48.1
19:35 1022 30.18 851 25.13 18.2 64.7 53 8.5 47.2
19:40 1022 30.18 851 25.13 17.9 64.3 52 8.1 46.6
19:45 1022 30.18 851 25.13 17.5 63.5 54 8.2 46.7
19:50 1022 30.18 851 25.13 17.2 62.9 58 9 48.2
19:55 1022 30.18 851 25.13 16.9 62.5 57 8.5 47.3
20:00 1022 30.18 851 25.13 16.5 61.7 59 8.6 47.5
20:05 1022 30.18 851 25.13 16.2 61.1 60 8.5 47.2
20:10 1022 30.18 851 25.13 15.9 60.6 61 8.5 47.4
20:15 1022 30.18 852 25.16 15.7 60.2 60 8 46.4
20:20 1022 30.18 852 25.16 15.7 60.2 57 7.3 45.1
20:25 1022 30.18 852 25.16 15.8 60.5 58 7.7 45.9
20:30 1022 30.18 852 25.16 15.6 60 58 7.4 45.4
20:35 1022 30.18 852 25.16 15.5 59.9 57 7 44.6
20:40 1022 30.18 852 25.16 15.6 60.1 57 7.3 45.1
20:45 1022 30.18 852 25.16 15.4 59.8 57 7.2 44.9
20:50 1022 30.18 852 25.16 15.4 59.7 58 7.2 45
20:55 1022 30.18 852 25.16 15.2 59.3 59 7.2 45
21:00 1022 30.18 852 25.16 15.1 59.2 59 7.2 44.9
21:05 1022 30.18 852 25.16 14.9 58.9 59 7.2 44.9
21:10 1022 30.18 852 25.16 14.9 58.7 59 7 44.6
21:15 1022 30.18 852 25.16 15 59.1 57 6.8 44.2
21:20 1022 30.18 852 25.16 15.3 59.5 56 6.6 43.8
21:25 1022 30.18 852 25.16 15.5 59.9 57 7.1 44.8
21:30 1023 30.21 852 25.16 15.2 59.4 62 8 46.4
21:35 1023 30.21 852 25.16 14.9 58.8 62 7.7 45.8
21:40 1023 30.21 852 25.16 14.7 58.4 62 7.6 45.7
21:45 1023 30.21 852 25.16 14.3 57.8 64 7.7 45.9
21:50 1023 30.21 852 25.16 14.2 57.6 62 7.2 45
21:55 1023 30.21 852 25.16 14.5 58 63 7.5 45.5
22:00 1023 30.21 852 25.16 14.4 58 61 7.1 44.7
22:05 1023 30.21 852 25.16 14.5 58.1 60 7 44.6
22:10 1023 30.21 852 25.16 14.6 58.2 60 6.9 44.4
22:15 1022 30.18 852 25.16 14.7 58.4 61 7.2 45
22:20 1022 30.18 852 25.16 14.3 57.7 62 7.1 44.7
22:25 1022 30.18 852 25.16 14.2 57.5 61 6.9 44.4
22:30 1022 30.18 852 25.16 14.2 57.6 62 7.1 44.9
22:35 1022 30.18 852 25.16 13.9 57.1 62 6.9 44.4
22:40 1022 30.18 852 25.16 14 57.2 63 7 44.6
22:45 1022 30.18 852 25.16 13.8 56.8 64 7.2 44.9
22:50 1022 30.18 852 25.16 13.4 56.2 66 7.2 45
22:55 1022 30.18 852 25.16 13.2 55.8 66 7 44.6
23:00 1022 30.18 852 25.16 13.1 55.6 67 7.1 44.8
23:05 1022 30.18 852 25.16 13 55.4 67 7 44.6
23:10 1022 30.18 852 25.16 12.9 55.2 67 7 44.7
23:15 1022 30.18 852 25.16 12.8 55.1 67 6.9 44.4
23:20 1022 30.18 852 25.16 13 55.4 66 6.9 44.4
23:25 1022 30.18 852 25.16 13.1 55.6 66 7 44.7
23:30 1022 30.18 852 25.16 13 55.5 66 6.9 44.5
23:35 1022 30.18 852 25.16 13.1 55.6 65 6.8 44.3
23:40 1022 30.18 852 25.16 13.2 55.7 66 7 44.6
23:45 1022 30.18 852 25.16 13.1 55.5 66 6.8 44.2
23:50 1023 30.21 852 25.16 13.2 55.8 65 6.8 44.2
23:55 1022 30.18 852 25.16 13.4 56.1 63 6.6 43.8
24:00 1022 30.18 852 25.16 13.6 56.5 63 6.7 44